sensor_id;sensor_type;location;lat;lon;timestamp;P1;durP1;ratioP1;P2;durP2;ratioP2
7747;SDS011;3918;42.564;23.164;2023-04-07T04:02:31;19.87;;;5.67;;
7747;SDS011;3918;42.564;23.164;2023-04-07T04:04:58;7.60;;;5.03;;
7747;SDS011;3918;42.564;23.164;2023-04-07T04:07:24;5.57;;;4.60;;
7747;SDS011;3918;42.564;23.164;2023-04-07T04:09:51;6.67;;;4.90;;
7747;SDS011;3918;42.564;23.164;2023-04-07T04:12:18;10.33;;;5.07;;
7747;SDS011;3918;42.564;23.164;2023-04-07T04:14:45;8.33;;;4.87;;
7747;SDS011;3918;42.564;23.164;2023-04-07T04:17:11;6.67;;;4.67;;
7747;SDS011;3918;42.564;23.164;2023-04-07T04:19:40;6.63;;;4.73;;
7747;SDS011;3918;42.564;23.164;2023-04-07T04:22:06;8.37;;;4.77;;
7747;SDS011;3918;42.564;23.164;2023-04-07T04:24:33;6.57;;;5.47;;
7747;SDS011;3918;42.564;23.164;2023-04-07T04:27:00;20.53;;;5.63;;
7747;SDS011;3918;42.564;23.164;2023-04-07T04:29:27;6.80;;;4.87;;
7747;SDS011;3918;42.564;23.164;2023-04-07T04:31:53;9.47;;;4.73;;
7747;SDS011;3918;42.564;23.164;2023-04-07T04:34:20;7.93;;;5.13;;
7747;SDS011;3918;42.564;23.164;2023-04-07T04:36:48;6.53;;;4.23;;
7747;SDS011;3918;42.564;23.164;2023-04-07T04:39:15;8.77;;;4.57;;
7747;SDS011;3918;42.564;23.164;2023-04-07T04:41:42;6.97;;;4.60;;
7747;SDS011;3918;42.564;23.164;2023-04-07T04:44:10;6.27;;;4.40;;
7747;SDS011;3918;42.564;23.164;2023-04-07T04:46:37;7.20;;;4.73;;
7747;SDS011;3918;42.564;23.164;2023-04-07T04:49:04;6.20;;;4.70;;
7747;SDS011;3918;42.564;23.164;2023-04-07T04:51:31;7.20;;;4.60;;
7747;SDS011;3918;42.564;23.164;2023-04-07T04:53:59;10.83;;;4.70;;
7747;SDS011;3918;42.564;23.164;2023-04-07T04:56:27;6.07;;;4.37;;
7747;SDS011;3918;42.564;23.164;2023-04-07T04:58:54;7.70;;;4.60;;
7747;SDS011;3918;42.564;23.164;2023-04-07T05:01:21;7.23;;;4.57;;
7747;SDS011;3918;42.564;23.164;2023-04-07T05:03:48;6.30;;;4.60;;
7747;SDS011;3918;42.564;23.164;2023-04-07T05:06:15;15.43;;;4.77;;
7747;SDS011;3918;42.564;23.164;2023-04-07T05:08:41;6.13;;;4.10;;
7747;SDS011;3918;42.564;23.164;2023-04-07T05:11:10;5.03;;;3.90;;
7747;SDS011;3918;42.564;23.164;2023-04-07T05:13:36;5.80;;;4.10;;
7747;SDS011;3918;42.564;23.164;2023-04-07T05:16:03;13.77;;;4.37;;
7747;SDS011;3918;42.564;23.164;2023-04-07T05:18:31;7.60;;;4.13;;
7747;SDS011;3918;42.564;23.164;2023-04-07T05:20:57;7.67;;;4.57;;
7747;SDS011;3918;42.564;23.164;2023-04-07T05:23:25;7.60;;;4.60;;
7747;SDS011;3918;42.564;23.164;2023-04-07T05:25:52;6.33;;;4.73;;
7747;SDS011;3918;42.564;23.164;2023-04-07T05:28:21;9.73;;;4.27;;
7747;SDS011;3918;42.564;23.164;2023-04-07T05:30:48;6.13;;;4.37;;
7747;SDS011;3918;42.564;23.164;2023-04-07T05:33:15;5.93;;;4.30;;
7747;SDS011;3918;42.564;23.164;2023-04-07T05:35:42;6.22;;;4.38;;
7747;SDS011;3918;42.564;23.164;2023-04-07T05:38:09;9.70;;;4.47;;
7747;SDS011;3918;42.564;23.164;2023-04-07T05:40:36;6.13;;;4.50;;
7747;SDS011;3918;42.564;23.164;2023-04-07T05:43:03;7.90;;;4.90;;
7747;SDS011;3918;42.564;23.164;2023-04-07T05:45:31;6.55;;;4.50;;
7747;SDS011;3918;42.564;23.164;2023-04-07T05:47:58;8.45;;;5.10;;
7747;SDS011;3918;42.564;23.164;2023-04-07T05:50:24;6.05;;;4.25;;
7747;SDS011;3918;42.564;23.164;2023-04-07T05:52:51;6.85;;;4.63;;
7747;SDS011;3918;42.564;23.164;2023-04-07T05:55:18;6.85;;;4.65;;
7747;SDS011;3918;42.564;23.164;2023-04-07T05:57:45;8.25;;;4.30;;
7747;SDS011;3918;42.564;23.164;2023-04-07T06:00:12;12.27;;;4.47;;
7747;SDS011;3918;42.564;23.164;2023-04-07T06:02:41;42.40;;;5.78;;
7747;SDS011;3918;42.564;23.164;2023-04-07T06:05:08;7.93;;;4.50;;
7747;SDS011;3918;42.564;23.164;2023-04-07T06:07:35;8.43;;;4.40;;
7747;SDS011;3918;42.564;23.164;2023-04-07T06:10:01;5.30;;;4.13;;
7747;SDS011;3918;42.564;23.164;2023-04-07T06:12:28;7.90;;;4.80;;
7747;SDS011;3918;42.564;23.164;2023-04-07T06:14:55;7.80;;;4.32;;
7747;SDS011;3918;42.564;23.164;2023-04-07T06:17:22;6.03;;;4.32;;
7747;SDS011;3918;42.564;23.164;2023-04-07T06:19:50;10.90;;;4.93;;
7747;SDS011;3918;42.564;23.164;2023-04-07T06:22:18;6.20;;;4.20;;
7747;SDS011;3918;42.564;23.164;2023-04-07T06:24:45;6.60;;;4.07;;
7747;SDS011;3918;42.564;23.164;2023-04-07T06:27:12;11.45;;;4.55;;
7747;SDS011;3918;42.564;23.164;2023-04-07T06:29:38;5.70;;;3.88;;
7747;SDS011;3918;42.564;23.164;2023-04-07T06:32:05;5.80;;;4.35;;
7747;SDS011;3918;42.564;23.164;2023-04-07T06:34:32;6.13;;;3.88;;
7747;SDS011;3918;42.564;23.164;2023-04-07T06:37:00;6.95;;;3.90;;
7747;SDS011;3918;42.564;23.164;2023-04-07T06:39:29;4.40;;;3.80;;
7747;SDS011;3918;42.564;23.164;2023-04-07T06:41:56;5.72;;;4.55;;
7747;SDS011;3918;42.564;23.164;2023-04-07T06:44:23;6.20;;;4.72;;
7747;SDS011;3918;42.564;23.164;2023-04-07T06:46:49;27.20;;;6.30;;
7747;SDS011;3918;42.564;23.164;2023-04-07T06:49:17;7.43;;;4.88;;
7747;SDS011;3918;42.564;23.164;2023-04-07T06:51:44;5.43;;;4.18;;
7747;SDS011;3918;42.564;23.164;2023-04-07T06:54:12;4.85;;;4.38;;
7747;SDS011;3918;42.564;23.164;2023-04-07T06:56:39;8.15;;;5.32;;
7747;SDS011;3918;42.564;23.164;2023-04-07T06:59:06;18.48;;;5.00;;
7747;SDS011;3918;42.564;23.164;2023-04-07T07:01:33;29.90;;;5.68;;
7747;SDS011;3918;42.564;23.164;2023-04-07T07:04:01;4.78;;;4.20;;
7747;SDS011;3918;42.564;23.164;2023-04-07T07:06:29;4.88;;;4.10;;
7747;SDS011;3918;42.564;23.164;2023-04-07T07:08:56;5.30;;;4.28;;
7747;SDS011;3918;42.564;23.164;2023-04-07T07:11:25;7.13;;;4.25;;
7747;SDS011;3918;42.564;23.164;2023-04-07T07:13:52;8.00;;;4.60;;
7747;SDS011;3918;42.564;23.164;2023-04-07T07:16:19;17.52;;;4.13;;
7747;SDS011;3918;42.564;23.164;2023-04-07T07:18:48;30.15;;;5.75;;
7747;SDS011;3918;42.564;23.164;2023-04-07T07:21:15;5.90;;;4.05;;
7747;SDS011;3918;42.564;23.164;2023-04-07T07:23:42;10.13;;;4.63;;
7747;SDS011;3918;42.564;23.164;2023-04-07T07:26:09;7.80;;;4.80;;
7747;SDS011;3918;42.564;23.164;2023-04-07T07:28:37;5.18;;;4.18;;
7747;SDS011;3918;42.564;23.164;2023-04-07T07:31:07;7.30;;;3.85;;
7747;SDS011;3918;42.564;23.164;2023-04-07T07:33:37;14.98;;;4.90;;
7747;SDS011;3918;42.564;23.164;2023-04-07T07:36:05;5.25;;;4.18;;
7747;SDS011;3918;42.564;23.164;2023-04-07T07:38:32;4.65;;;4.18;;
7747;SDS011;3918;42.564;23.164;2023-04-07T07:40:59;15.13;;;4.80;;
7747;SDS011;3918;42.564;23.164;2023-04-07T07:43:26;11.00;;;4.60;;
7747;SDS011;3918;42.564;23.164;2023-04-07T07:45:54;9.35;;;4.40;;
7747;SDS011;3918;42.564;23.164;2023-04-07T07:48:21;9.35;;;4.53;;
7747;SDS011;3918;42.564;23.164;2023-04-07T07:50:48;7.40;;;4.70;;
7747;SDS011;3918;42.564;23.164;2023-04-07T07:53:14;8.55;;;5.60;;
7747;SDS011;3918;42.564;23.164;2023-04-07T07:55:41;9.85;;;5.32;;
7747;SDS011;3918;42.564;23.164;2023-04-07T07:58:08;9.50;;;5.00;;
7747;SDS011;3918;42.564;23.164;2023-04-07T08:00:35;6.82;;;4.63;;
7747;SDS011;3918;42.564;23.164;2023-04-07T08:03:03;15.05;;;5.32;;
7747;SDS011;3918;42.564;23.164;2023-04-07T08:05:29;41.72;;;7.13;;
7747;SDS011;3918;42.564;23.164;2023-04-07T08:07:56;19.77;;;5.15;;
7747;SDS011;3918;42.564;23.164;2023-04-07T08:10:24;9.13;;;4.38;;
7747;SDS011;3918;42.564;23.164;2023-04-07T08:12:50;11.10;;;4.18;;
7747;SDS011;3918;42.564;23.164;2023-04-07T08:15:17;5.90;;;4.40;;
7747;SDS011;3918;42.564;23.164;2023-04-07T08:17:44;36.33;;;5.55;;
7747;SDS011;3918;42.564;23.164;2023-04-07T08:20:12;7.65;;;4.60;;
7747;SDS011;3918;42.564;23.164;2023-04-07T08:22:40;6.30;;;4.90;;
7747;SDS011;3918;42.564;23.164;2023-04-07T08:25:07;18.77;;;4.82;;
7747;SDS011;3918;42.564;23.164;2023-04-07T08:27:34;25.58;;;4.78;;
7747;SDS011;3918;42.564;23.164;2023-04-07T08:30:02;18.08;;;5.35;;
7747;SDS011;3918;42.564;23.164;2023-04-07T08:32:34;5.43;;;4.25;;
7747;SDS011;3918;42.564;23.164;2023-04-07T08:35:01;8.65;;;4.90;;
7747;SDS011;3918;42.564;23.164;2023-04-07T08:37:30;14.48;;;4.97;;
7747;SDS011;3918;42.564;23.164;2023-04-07T08:39:57;12.30;;;5.38;;
7747;SDS011;3918;42.564;23.164;2023-04-07T08:42:25;6.97;;;4.65;;
7747;SDS011;3918;42.564;23.164;2023-04-07T08:44:55;19.13;;;5.95;;
7747;SDS011;3918;42.564;23.164;2023-04-07T08:47:24;15.00;;;4.72;;
7747;SDS011;3918;42.564;23.164;2023-04-07T08:49:51;9.73;;;4.30;;
7747;SDS011;3918;42.564;23.164;2023-04-07T08:52:22;7.43;;;4.80;;
7747;SDS011;3918;42.564;23.164;2023-04-07T08:54:58;4.85;;;4.35;;
7747;SDS011;3918;42.564;23.164;2023-04-07T08:57:27;12.85;;;6.18;;
7747;SDS011;3918;42.564;23.164;2023-04-07T08:59:55;24.58;;;5.85;;
7747;SDS011;3918;42.564;23.164;2023-04-07T09:02:26;15.32;;;6.53;;
7747;SDS011;3918;42.564;23.164;2023-04-07T09:04:53;141.70;;;12.57;;
7747;SDS011;3918;42.564;23.164;2023-04-07T09:07:21;54.65;;;5.65;;
7747;SDS011;3918;42.564;23.164;2023-04-07T09:09:49;8.32;;;4.07;;
7747;SDS011;3918;42.564;23.164;2023-04-07T09:12:16;7.25;;;4.80;;
7747;SDS011;3918;42.564;23.164;2023-04-07T09:14:43;13.95;;;4.55;;
7747;SDS011;3918;42.564;23.164;2023-04-07T09:17:10;12.77;;;5.22;;
7747;SDS011;3918;42.564;23.164;2023-04-07T09:19:36;5.97;;;4.97;;
7747;SDS011;3918;42.564;23.164;2023-04-07T09:22:03;5.63;;;4.80;;
7747;SDS011;3918;42.564;23.164;2023-04-07T09:24:30;17.45;;;5.65;;
7747;SDS011;3918;42.564;23.164;2023-04-07T09:27:11;30.10;;;5.90;;
7747;SDS011;3918;42.564;23.164;2023-04-07T09:29:39;33.42;;;6.20;;
7747;SDS011;3918;42.564;23.164;2023-04-07T09:32:07;62.22;;;7.65;;
7747;SDS011;3918;42.564;23.164;2023-04-07T09:34:35;12.25;;;6.13;;
7747;SDS011;3918;42.564;23.164;2023-04-07T09:37:03;49.28;;;7.30;;
7747;SDS011;3918;42.564;23.164;2023-04-07T09:39:31;15.60;;;6.47;;
7747;SDS011;3918;42.564;23.164;2023-04-07T09:41:58;14.60;;;5.85;;
7747;SDS011;3918;42.564;23.164;2023-04-07T09:44:38;13.30;;;5.07;;
7747;SDS011;3918;42.564;23.164;2023-04-07T09:47:05;6.88;;;5.07;;
7747;SDS011;3918;42.564;23.164;2023-04-07T09:49:31;7.80;;;5.15;;
7747;SDS011;3918;42.564;23.164;2023-04-07T09:51:59;7.43;;;5.43;;
7747;SDS011;3918;42.564;23.164;2023-04-07T09:54:32;6.10;;;4.82;;
7747;SDS011;3918;42.564;23.164;2023-04-07T09:57:01;29.08;;;6.32;;
7747;SDS011;3918;42.564;23.164;2023-04-07T09:59:29;12.40;;;4.78;;
7747;SDS011;3918;42.564;23.164;2023-04-07T10:01:58;7.40;;;4.75;;
7747;SDS011;3918;42.564;23.164;2023-04-07T10:04:26;16.15;;;5.38;;
7747;SDS011;3918;42.564;23.164;2023-04-07T10:06:53;5.90;;;4.85;;
7747;SDS011;3918;42.564;23.164;2023-04-07T10:09:20;6.05;;;4.82;;
7747;SDS011;3918;42.564;23.164;2023-04-07T10:11:49;5.25;;;4.60;;
7747;SDS011;3918;42.564;23.164;2023-04-07T10:14:16;9.13;;;5.90;;
7747;SDS011;3918;42.564;23.164;2023-04-07T10:16:43;9.80;;;5.38;;
7747;SDS011;3918;42.564;23.164;2023-04-07T10:19:14;10.68;;;4.97;;
7747;SDS011;3918;42.564;23.164;2023-04-07T10:21:42;9.27;;;4.97;;
7747;SDS011;3918;42.564;23.164;2023-04-07T10:24:13;8.65;;;4.97;;
7747;SDS011;3918;42.564;23.164;2023-04-07T10:26:50;14.00;;;5.22;;
7747;SDS011;3918;42.564;23.164;2023-04-07T10:29:22;10.27;;;5.32;;
7747;SDS011;3918;42.564;23.164;2023-04-07T10:31:50;6.60;;;4.47;;
7747;SDS011;3918;42.564;23.164;2023-04-07T10:34:26;13.35;;;5.05;;
7747;SDS011;3918;42.564;23.164;2023-04-07T10:37:23;19.60;;;5.10;;
7747;SDS011;3918;42.564;23.164;2023-04-07T10:39:50;9.10;;;4.22;;
7747;SDS011;3918;42.564;23.164;2023-04-07T10:42:43;6.07;;;4.72;;
7747;SDS011;3918;42.564;23.164;2023-04-07T10:45:11;6.88;;;4.25;;
7747;SDS011;3918;42.564;23.164;2023-04-07T10:48:07;7.75;;;4.20;;
7747;SDS011;3918;42.564;23.164;2023-04-07T10:50:37;7.40;;;5.10;;
7747;SDS011;3918;42.564;23.164;2023-04-07T10:53:04;14.77;;;5.95;;
7747;SDS011;3918;42.564;23.164;2023-04-07T10:55:34;6.05;;;4.40;;
7747;SDS011;3918;42.564;23.164;2023-04-07T10:58:17;8.70;;;4.30;;
7747;SDS011;3918;42.564;23.164;2023-04-07T11:03:58;7.45;;;4.80;;
7747;SDS011;3918;42.564;23.164;2023-04-07T11:06:26;6.03;;;4.32;;
7747;SDS011;3918;42.564;23.164;2023-04-07T11:08:52;8.15;;;5.85;;
7747;SDS011;3918;42.564;23.164;2023-04-07T11:11:20;11.15;;;5.28;;
7747;SDS011;3918;42.564;23.164;2023-04-07T11:14:02;7.38;;;4.93;;
7747;SDS011;3918;42.564;23.164;2023-04-07T11:16:42;5.03;;;4.53;;
7747;SDS011;3918;42.564;23.164;2023-04-07T11:19:11;150.40;;;11.38;;
7747;SDS011;3918;42.564;23.164;2023-04-07T11:21:38;11.00;;;5.22;;
7747;SDS011;3918;42.564;23.164;2023-04-07T11:24:04;5.90;;;4.90;;
7747;SDS011;3918;42.564;23.164;2023-04-07T11:26:35;8.48;;;5.05;;
7747;SDS011;3918;42.564;23.164;2023-04-07T11:29:04;5.47;;;4.10;;
7747;SDS011;3918;42.564;23.164;2023-04-07T11:31:30;7.57;;;4.80;;
7747;SDS011;3918;42.564;23.164;2023-04-07T11:33:58;8.02;;;5.15;;
7747;SDS011;3918;42.564;23.164;2023-04-07T11:36:29;10.23;;;5.00;;
7747;SDS011;3918;42.564;23.164;2023-04-07T11:38:57;11.95;;;5.10;;
7747;SDS011;3918;42.564;23.164;2023-04-07T11:41:26;5.75;;;4.60;;
7747;SDS011;3918;42.564;23.164;2023-04-07T11:44:04;5.60;;;4.60;;
7747;SDS011;3918;42.564;23.164;2023-04-07T11:46:32;6.45;;;4.57;;
7747;SDS011;3918;42.564;23.164;2023-04-07T11:49:10;9.18;;;4.88;;
7747;SDS011;3918;42.564;23.164;2023-04-07T11:51:39;8.38;;;4.65;;
7747;SDS011;3918;42.564;23.164;2023-04-07T11:54:09;6.53;;;4.63;;
7747;SDS011;3918;42.564;23.164;2023-04-07T11:56:43;6.55;;;4.45;;
7747;SDS011;3918;42.564;23.164;2023-04-07T11:59:20;10.60;;;7.13;;
7747;SDS011;3918;42.564;23.164;2023-04-07T12:01:48;8.10;;;5.20;;
7747;SDS011;3918;42.564;23.164;2023-04-07T12:04:15;4.97;;;4.45;;
7747;SDS011;3918;42.564;23.164;2023-04-07T12:06:44;3.97;;;3.60;;
7747;SDS011;3918;42.564;23.164;2023-04-07T12:09:24;6.78;;;4.55;;
7747;SDS011;3918;42.564;23.164;2023-04-07T12:11:53;14.65;;;4.78;;
7747;SDS011;3918;42.564;23.164;2023-04-07T12:14:21;6.43;;;4.93;;
7747;SDS011;3918;42.564;23.164;2023-04-07T12:16:48;4.68;;;4.20;;
7747;SDS011;3918;42.564;23.164;2023-04-07T12:19:14;7.68;;;4.40;;
7747;SDS011;3918;42.564;23.164;2023-04-07T12:21:43;28.35;;;5.50;;
7747;SDS011;3918;42.564;23.164;2023-04-07T12:24:10;4.68;;;4.20;;
7747;SDS011;3918;42.564;23.164;2023-04-07T12:26:37;19.40;;;4.93;;
7747;SDS011;3918;42.564;23.164;2023-04-07T12:29:03;6.85;;;5.43;;
7747;SDS011;3918;42.564;23.164;2023-04-07T12:31:31;6.75;;;4.53;;
7747;SDS011;3918;42.564;23.164;2023-04-07T12:33:58;10.48;;;4.75;;
7747;SDS011;3918;42.564;23.164;2023-04-07T12:36:25;27.88;;;5.38;;
7747;SDS011;3918;42.564;23.164;2023-04-07T12:38:55;26.98;;;4.88;;
7747;SDS011;3918;42.564;23.164;2023-04-07T12:41:23;6.25;;;3.58;;
7747;SDS011;3918;42.564;23.164;2023-04-07T12:43:50;11.13;;;4.45;;
7747;SDS011;3918;42.564;23.164;2023-04-07T12:46:17;5.38;;;3.92;;
7747;SDS011;3918;42.564;23.164;2023-04-07T12:48:45;6.60;;;4.55;;
7747;SDS011;3918;42.564;23.164;2023-04-07T12:51:13;7.63;;;4.18;;
7747;SDS011;3918;42.564;23.164;2023-04-07T12:53:40;8.60;;;4.68;;
7747;SDS011;3918;42.564;23.164;2023-04-07T12:56:08;10.38;;;4.25;;
7747;SDS011;3918;42.564;23.164;2023-04-07T12:58:37;24.65;;;5.80;;
7747;SDS011;3918;42.564;23.164;2023-04-07T13:01:04;8.50;;;4.82;;
7747;SDS011;3918;42.564;23.164;2023-04-07T13:03:30;6.70;;;4.13;;
7747;SDS011;3918;42.564;23.164;2023-04-07T13:05:57;19.83;;;5.00;;
7747;SDS011;3918;42.564;23.164;2023-04-07T13:08:25;18.98;;;4.85;;
7747;SDS011;3918;42.564;23.164;2023-04-07T13:10:53;5.68;;;4.20;;
7747;SDS011;3918;42.564;23.164;2023-04-07T13:13:21;36.50;;;4.97;;
7747;SDS011;3918;42.564;23.164;2023-04-07T13:15:48;5.70;;;3.80;;
7747;SDS011;3918;42.564;23.164;2023-04-07T13:18:15;7.40;;;4.22;;
7747;SDS011;3918;42.564;23.164;2023-04-07T13:20:42;5.35;;;4.13;;
7747;SDS011;3918;42.564;23.164;2023-04-07T13:23:09;10.10;;;4.03;;
7747;SDS011;3918;42.564;23.164;2023-04-07T13:25:36;10.02;;;4.93;;
7747;SDS011;3918;42.564;23.164;2023-04-07T13:28:03;11.70;;;4.72;;
7747;SDS011;3918;42.564;23.164;2023-04-07T13:30:32;10.65;;;4.25;;
7747;SDS011;3918;42.564;23.164;2023-04-07T13:32:58;6.65;;;4.20;;
7747;SDS011;3918;42.564;23.164;2023-04-07T13:35:25;11.60;;;5.13;;
7747;SDS011;3918;42.564;23.164;2023-04-07T13:37:54;12.82;;;4.70;;
7747;SDS011;3918;42.564;23.164;2023-04-07T13:40:20;6.20;;;3.67;;
7747;SDS011;3918;42.564;23.164;2023-04-07T13:42:47;9.68;;;4.30;;
7747;SDS011;3918;42.564;23.164;2023-04-07T13:45:14;13.40;;;4.50;;
7747;SDS011;3918;42.564;23.164;2023-04-07T13:47:42;8.95;;;4.45;;
7747;SDS011;3918;42.564;23.164;2023-04-07T13:50:10;6.13;;;4.05;;
7747;SDS011;3918;42.564;23.164;2023-04-07T13:52:36;7.88;;;4.97;;
7747;SDS011;3918;42.564;23.164;2023-04-07T13:55:04;13.98;;;4.38;;
7747;SDS011;3918;42.564;23.164;2023-04-07T13:57:31;5.95;;;3.78;;
7747;SDS011;3918;42.564;23.164;2023-04-07T13:59:58;10.20;;;4.72;;
7747;SDS011;3918;42.564;23.164;2023-04-07T14:02:25;16.23;;;5.10;;
7747;SDS011;3918;42.564;23.164;2023-04-07T14:04:55;6.75;;;4.70;;
7747;SDS011;3918;42.564;23.164;2023-04-07T14:07:22;5.45;;;4.20;;
7747;SDS011;3918;42.564;23.164;2023-04-07T14:09:49;11.00;;;3.95;;
7747;SDS011;3918;42.564;23.164;2023-04-07T14:12:16;6.80;;;4.75;;
7747;SDS011;3918;42.564;23.164;2023-04-07T14:14:45;9.93;;;5.03;;
7747;SDS011;3918;42.564;23.164;2023-04-07T14:17:14;9.63;;;4.82;;
7747;SDS011;3918;42.564;23.164;2023-04-07T14:19:41;6.07;;;4.88;;
7747;SDS011;3918;42.564;23.164;2023-04-07T14:22:09;8.20;;;5.63;;
7747;SDS011;3918;42.564;23.164;2023-04-07T14:24:35;5.40;;;4.50;;
7747;SDS011;3918;42.564;23.164;2023-04-07T14:27:02;7.13;;;5.18;;
7747;SDS011;3918;42.564;23.164;2023-04-07T14:29:29;16.60;;;5.60;;
7747;SDS011;3918;42.564;23.164;2023-04-07T14:31:56;6.18;;;5.28;;
7747;SDS011;3918;42.564;23.164;2023-04-07T14:34:23;6.25;;;4.82;;
7747;SDS011;3918;42.564;23.164;2023-04-07T14:36:52;8.55;;;4.93;;
7747;SDS011;3918;42.564;23.164;2023-04-07T14:39:21;5.82;;;4.90;;
7747;SDS011;3918;42.564;23.164;2023-04-07T14:41:48;9.98;;;5.13;;
7747;SDS011;3918;42.564;23.164;2023-04-07T14:44:15;6.75;;;5.03;;
7747;SDS011;3918;42.564;23.164;2023-04-07T14:46:42;7.20;;;5.22;;
7747;SDS011;3918;42.564;23.164;2023-04-07T14:49:08;6.90;;;5.50;;
7747;SDS011;3918;42.564;23.164;2023-04-07T14:51:37;7.63;;;5.18;;
7747;SDS011;3918;42.564;23.164;2023-04-07T14:54:03;16.33;;;5.78;;
7747;SDS011;3918;42.564;23.164;2023-04-07T14:56:32;12.90;;;5.32;;
7747;SDS011;3918;42.564;23.164;2023-04-07T14:58:58;5.70;;;5.00;;
7747;SDS011;3918;42.564;23.164;2023-04-07T15:01:25;8.63;;;5.55;;
7747;SDS011;3918;42.564;23.164;2023-04-07T15:03:52;10.10;;;5.55;;
7747;SDS011;3918;42.564;23.164;2023-04-07T15:06:19;9.18;;;5.40;;
7747;SDS011;3918;42.564;23.164;2023-04-07T15:08:46;7.57;;;5.38;;
7747;SDS011;3918;42.564;23.164;2023-04-07T15:11:12;6.28;;;5.25;;
7747;SDS011;3918;42.564;23.164;2023-04-07T15:13:40;7.07;;;5.15;;
7747;SDS011;3918;42.564;23.164;2023-04-07T15:16:08;6.35;;;4.82;;
7747;SDS011;3918;42.564;23.164;2023-04-07T15:18:37;7.88;;;5.50;;
7747;SDS011;3918;42.564;23.164;2023-04-07T15:21:04;6.22;;;5.20;;
7747;SDS011;3918;42.564;23.164;2023-04-07T15:23:31;21.48;;;5.55;;
7747;SDS011;3918;42.564;23.164;2023-04-07T15:25:58;11.30;;;5.15;;
7747;SDS011;3918;42.564;23.164;2023-04-07T15:28:25;10.35;;;4.97;;
7747;SDS011;3918;42.564;23.164;2023-04-07T15:30:53;13.18;;;6.78;;
7747;SDS011;3918;42.564;23.164;2023-04-07T15:33:20;9.95;;;5.55;;
7747;SDS011;3918;42.564;23.164;2023-04-07T15:35:46;8.00;;;4.95;;
7747;SDS011;3918;42.564;23.164;2023-04-07T15:38:13;8.73;;;5.45;;
7747;SDS011;3918;42.564;23.164;2023-04-07T15:40:40;12.27;;;6.82;;
7747;SDS011;3918;42.564;23.164;2023-04-07T15:43:07;14.40;;;5.28;;
7747;SDS011;3918;42.564;23.164;2023-04-07T15:45:38;6.57;;;4.78;;
7747;SDS011;3918;42.564;23.164;2023-04-07T15:48:07;4.78;;;4.20;;
7747;SDS011;3918;42.564;23.164;2023-04-07T15:50:34;8.95;;;5.85;;
7747;SDS011;3918;42.564;23.164;2023-04-07T15:53:01;7.10;;;5.43;;
7747;SDS011;3918;42.564;23.164;2023-04-07T15:55:29;10.95;;;6.18;;
7747;SDS011;3918;42.564;23.164;2023-04-07T15:57:56;12.30;;;5.18;;
7747;SDS011;3918;42.564;23.164;2023-04-07T16:00:23;10.85;;;5.97;;
7747;SDS011;3918;42.564;23.164;2023-04-07T16:02:50;9.50;;;6.10;;
7747;SDS011;3918;42.564;23.164;2023-04-07T16:05:18;11.15;;;6.20;;
7747;SDS011;3918;42.564;23.164;2023-04-07T16:07:45;12.02;;;6.18;;
7747;SDS011;3918;42.564;23.164;2023-04-07T16:10:11;18.92;;;6.65;;
7747;SDS011;3918;42.564;23.164;2023-04-07T16:12:38;7.43;;;5.50;;
7747;SDS011;3918;42.564;23.164;2023-04-07T16:15:06;9.85;;;6.93;;
7747;SDS011;3918;42.564;23.164;2023-04-07T16:17:35;9.30;;;6.30;;
7747;SDS011;3918;42.564;23.164;2023-04-07T16:20:01;9.43;;;6.50;;
7747;SDS011;3918;42.564;23.164;2023-04-07T16:22:30;31.67;;;7.93;;
7747;SDS011;3918;42.564;23.164;2023-04-07T16:24:57;18.50;;;8.68;;
7747;SDS011;3918;42.564;23.164;2023-04-07T16:27:23;10.45;;;6.28;;
7747;SDS011;3918;42.564;23.164;2023-04-07T16:29:50;15.05;;;7.55;;
7747;SDS011;3918;42.564;23.164;2023-04-07T16:32:17;12.65;;;7.95;;
7747;SDS011;3918;42.564;23.164;2023-04-07T16:34:43;12.82;;;6.88;;
7747;SDS011;3918;42.564;23.164;2023-04-07T16:37:10;11.57;;;6.85;;
7747;SDS011;3918;42.564;23.164;2023-04-07T16:39:38;12.65;;;7.65;;
7747;SDS011;3918;42.564;23.164;2023-04-07T16:42:05;8.63;;;6.95;;
7747;SDS011;3918;42.564;23.164;2023-04-07T16:44:32;12.30;;;7.22;;
7747;SDS011;3918;42.564;23.164;2023-04-07T16:46:59;8.30;;;6.38;;
7747;SDS011;3918;42.564;23.164;2023-04-07T16:49:26;9.93;;;6.88;;
7747;SDS011;3918;42.564;23.164;2023-04-07T16:51:52;11.13;;;6.70;;
7747;SDS011;3918;42.564;23.164;2023-04-07T16:54:19;11.10;;;7.57;;
7747;SDS011;3918;42.564;23.164;2023-04-07T16:56:48;11.75;;;7.95;;
7747;SDS011;3918;42.564;23.164;2023-04-07T16:59:15;13.63;;;6.88;;
7747;SDS011;3918;42.564;23.164;2023-04-07T17:01:42;10.38;;;7.05;;
7747;SDS011;3918;42.564;23.164;2023-04-07T17:04:08;14.73;;;7.47;;
7747;SDS011;3918;42.564;23.164;2023-04-07T17:06:35;9.55;;;7.43;;
7747;SDS011;3918;42.564;23.164;2023-04-07T17:09:02;11.82;;;7.38;;
7747;SDS011;3918;42.564;23.164;2023-04-07T17:11:29;10.23;;;7.05;;
7747;SDS011;3918;42.564;23.164;2023-04-07T17:13:57;15.77;;;7.68;;
7747;SDS011;3918;42.564;23.164;2023-04-07T17:16:24;12.18;;;7.50;;
7747;SDS011;3918;42.564;23.164;2023-04-07T17:18:50;15.02;;;8.10;;
7747;SDS011;3918;42.564;23.164;2023-04-07T17:21:17;18.15;;;8.43;;
7747;SDS011;3918;42.564;23.164;2023-04-07T17:23:44;13.70;;;8.88;;
7747;SDS011;3918;42.564;23.164;2023-04-07T17:26:10;12.70;;;8.85;;
7747;SDS011;3918;42.564;23.164;2023-04-07T17:28:37;15.30;;;8.07;;
7747;SDS011;3918;42.564;23.164;2023-04-07T17:31:05;19.65;;;9.40;;
7747;SDS011;3918;42.564;23.164;2023-04-07T17:33:32;24.00;;;8.95;;
7747;SDS011;3918;42.564;23.164;2023-04-07T17:36:00;14.07;;;9.05;;
7747;SDS011;3918;42.564;23.164;2023-04-07T17:38:27;13.25;;;9.40;;
7747;SDS011;3918;42.564;23.164;2023-04-07T17:40:55;16.52;;;8.25;;
7747;SDS011;3918;42.564;23.164;2023-04-07T17:43:22;17.85;;;9.23;;
7747;SDS011;3918;42.564;23.164;2023-04-07T17:45:50;18.48;;;11.65;;
7747;SDS011;3918;42.564;23.164;2023-04-07T17:48:18;17.00;;;9.15;;
7747;SDS011;3918;42.564;23.164;2023-04-07T17:50:46;36.55;;;19.45;;
7747;SDS011;3918;42.564;23.164;2023-04-07T17:53:13;47.70;;;24.90;;
7747;SDS011;3918;42.564;23.164;2023-04-07T17:55:39;16.70;;;10.20;;
7747;SDS011;3918;42.564;23.164;2023-04-07T17:58:06;15.43;;;8.48;;
7747;SDS011;3918;42.564;23.164;2023-04-07T18:00:33;20.48;;;8.52;;
7747;SDS011;3918;42.564;23.164;2023-04-07T18:03:00;16.92;;;8.27;;
7747;SDS011;3918;42.564;23.164;2023-04-07T18:05:29;9.07;;;7.00;;
7747;SDS011;3918;42.564;23.164;2023-04-07T18:07:56;13.43;;;8.82;;
7747;SDS011;3918;42.564;23.164;2023-04-07T18:10:22;11.25;;;8.05;;
7747;SDS011;3918;42.564;23.164;2023-04-07T18:12:50;11.00;;;7.28;;
7747;SDS011;3918;42.564;23.164;2023-04-07T18:15:16;12.52;;;6.63;;
7747;SDS011;3918;42.564;23.164;2023-04-07T18:17:43;10.23;;;7.40;;
7747;SDS011;3918;42.564;23.164;2023-04-07T18:20:11;10.98;;;7.45;;
7747;SDS011;3918;42.564;23.164;2023-04-07T18:22:40;11.95;;;6.82;;
7747;SDS011;3918;42.564;23.164;2023-04-07T18:25:08;9.73;;;7.38;;
7747;SDS011;3918;42.564;23.164;2023-04-07T18:27:35;11.27;;;7.60;;
7747;SDS011;3918;42.564;23.164;2023-04-07T18:30:02;11.77;;;7.85;;
7747;SDS011;3918;42.564;23.164;2023-04-07T18:32:29;9.82;;;7.32;;
7747;SDS011;3918;42.564;23.164;2023-04-07T18:34:56;11.50;;;6.60;;
7747;SDS011;3918;42.564;23.164;2023-04-07T18:37:22;11.52;;;6.97;;
7747;SDS011;3918;42.564;23.164;2023-04-07T18:39:50;11.32;;;7.00;;
7747;SDS011;3918;42.564;23.164;2023-04-07T18:42:17;18.25;;;8.90;;
7747;SDS011;3918;42.564;23.164;2023-04-07T18:44:44;37.55;;;16.77;;
7747;SDS011;3918;42.564;23.164;2023-04-07T18:47:11;25.02;;;11.93;;
7747;SDS011;3918;42.564;23.164;2023-04-07T18:49:38;15.65;;;8.80;;
7747;SDS011;3918;42.564;23.164;2023-04-07T18:52:04;17.88;;;9.65;;
7747;SDS011;3918;42.564;23.164;2023-04-07T18:54:31;23.60;;;10.57;;
7747;SDS011;3918;42.564;23.164;2023-04-07T18:56:59;17.02;;;9.77;;
7747;SDS011;3918;42.564;23.164;2023-04-07T18:59:26;19.67;;;11.82;;
